Time;durP1;ratioP1;P1;durP2;ratioP2;P2;SDS_P1;SDS_P2;PMS_P1;PMS_P2;Temp;Humidity;BMP_temperature;BMP_pressure;BME280_temperature;BME280_humidity;BME280_pressure;Samples;Min_cycle;Max_cycle;Signal;HPM_P1;HPM_P2
2021/12/21 00:00:47;;;;;;;34.87;12.13;;;-3.90;99.90;;;;;;5051410;28;20045;-78
2021/12/21 00:03:13;;;;;;;29.77;11.40;;;-3.80;99.90;;;;;;5051258;28;20041;-77
2021/12/21 00:05:40;;;;;;;28.93;12.83;;;-3.80;99.90;;;;;;5051285;28;20095;-78
2021/12/21 00:08:09;;;;;;;28.57;11.53;;;-3.80;99.90;;;;;;5034828;28;20081;-77
2021/12/21 00:10:36;;;;;;;28.97;11.80;;;-3.80;99.90;;;;;;5034966;28;20056;-78
2021/12/21 00:13:07;;;;;;;26.90;11.93;;;-3.80;99.90;;;;;;5001815;28;20053;-78
2021/12/21 00:20:48;;;;;;;25.33;11.43;;;-3.90;99.90;;;;;;5051426;28;20042;-77
2021/12/21 00:23:34;;;;;;;32.22;11.20;;;-3.90;99.90;;;;;;5036823;28;20053;-77
2021/12/21 00:26:12;;;;;;;24.37;7.83;;;-3.80;99.90;;;;;;5051376;28;20081;-78
2021/12/21 00:28:50;;;;;;;20.30;8.97;;;-3.90;99.90;;;;;;5034331;28;20076;-77
2021/12/21 00:31:16;;;;;;;19.63;7.17;;;-4.00;99.90;;;;;;5018043;28;20518;-77
2021/12/21 00:33:45;;;;;;;16.33;7.50;;;-4.10;99.90;;;;;;5017640;28;20053;-76
2021/12/21 00:36:11;;;;;;;16.20;6.23;;;-4.20;99.90;;;;;;5050698;28;20076;-77
2021/12/21 00:38:37;;;;;;;15.33;7.10;;;-4.30;99.90;;;;;;5050652;28;20080;-77
2021/12/21 00:41:04;;;;;;;19.37;7.40;;;-4.40;99.90;;;;;;5050727;28;20049;-77
2021/12/21 00:43:30;;;;;;;15.83;7.00;;;-4.50;99.90;;;;;;5034151;28;20045;-78
2021/12/21 00:45:56;;;;;;;16.03;7.07;;;-4.60;99.90;;;;;;5034004;28;20408;-77
2021/12/21 00:48:28;;;;;;;21.20;6.40;;;-4.60;99.90;;;;;;5033817;28;20171;-78
2021/12/21 00:50:54;;;;;;;13.27;5.70;;;-4.70;99.90;;;;;;5033826;28;20084;-78
2021/12/21 00:53:20;;;;;;;15.47;7.23;;;-4.60;99.90;;;;;;5033609;28;20176;-78
2021/12/21 00:55:45;;;;;;;19.30;8.40;;;-4.50;99.90;;;;;;5050467;28;20527;-77
2021/12/21 00:58:12;;;;;;;14.53;6.73;;;-4.30;99.90;;;;;;5050293;28;20495;-76
2021/12/21 01:00:38;;;;;;;13.87;6.23;;;-4.30;99.90;;;;;;5017074;28;20041;-76
2021/12/21 01:03:09;;;;;;;12.73;6.10;;;-4.40;99.90;;;;;;5033566;28;20075;-77
2021/12/21 01:05:47;;;;;;;13.73;5.53;;;-4.50;99.90;;;;;;5033693;28;20053;-78
2021/12/21 01:08:17;;;;;;;34.50;7.30;;;-4.50;99.90;;;;;;5050089;28;20092;-78
2021/12/21 01:11:09;;;;;;;17.50;6.17;;;-4.50;99.90;;;;;;5033578;28;20246;-78
2021/12/21 01:13:42;;;;;;;19.17;6.17;;;-4.60;99.90;;;;;;5049442;28;20057;-76
2021/12/21 01:18:55;;;;;;;14.67;8.97;;;-4.80;99.90;;;;;;5050090;28;20060;-78
2021/12/21 01:21:26;;;;;;;19.83;9.23;;;-4.90;99.90;;;;;;5050292;28;20041;-76
2021/12/21 01:24:23;;;;;;;17.63;9.67;;;-4.90;99.90;;;;;;5050055;28;20543;-78
2021/12/21 01:27:09;;;;;;;18.53;9.43;;;-4.90;99.90;;;;;;5032119;28;20138;-77
2021/12/21 01:29:56;;;;;;;24.50;10.80;;;-4.90;99.90;;;;;;5032084;28;20045;-76
2021/12/21 01:35:38;;;;;;;23.20;9.87;;;-4.80;99.90;;;;;;5033306;28;20045;-77
2021/12/21 01:43:04;;;;;;;30.70;13.33;;;-4.50;99.90;;;;;;5049555;28;20061;-78
2021/12/21 01:50:55;;;;;;;52.20;18.27;;;-4.70;99.90;;;;;;5049385;28;20135;-76
2021/12/21 01:53:21;;;;;;;33.30;15.40;;;-4.70;99.90;;;;;;5049193;28;20184;-77
2021/12/21 01:55:47;;;;;;;31.87;14.33;;;-4.70;99.90;;;;;;5032635;28;20125;-78
2021/12/21 01:58:13;;;;;;;23.50;12.37;;;-4.70;99.90;;;;;;5049180;28;20045;-77
2021/12/21 02:00:40;;;;;;;23.07;12.00;;;-4.80;99.90;;;;;;5032882;28;20377;-78
2021/12/21 02:03:07;;;;;;;25.93;11.67;;;-4.80;99.90;;;;;;5048979;28;20045;-78
2021/12/21 02:05:33;;;;;;;28.57;10.53;;;-4.80;99.90;;;;;;5032755;28;20050;-78
2021/12/21 02:07:58;;;;;;;23.60;9.57;;;-4.80;99.90;;;;;;5032293;28;21417;-76
2021/12/21 02:10:24;;;;;;;30.13;10.87;;;-4.80;99.90;;;;;;5015912;28;20053;-77
2021/12/21 02:12:51;;;;;;;18.67;8.57;;;-4.80;99.90;;;;;;5032377;28;20041;-78
2021/12/21 02:15:17;;;;;;;19.13;9.10;;;-4.80;99.90;;;;;;5048883;28;20076;-78
2021/12/21 02:22:52;;;;;;;20.47;9.80;;;-4.90;99.90;;;;;;5048718;28;20054;-77
2021/12/21 02:25:37;;;;;;;16.87;8.17;;;-4.90;99.90;;;;;;5048741;28;20034;-78
2021/12/21 02:28:22;;;;;;;26.93;8.97;;;-4.90;99.90;;;;;;5031991;28;20045;-76
2021/12/21 02:30:53;;;;;;;21.77;9.00;;;-4.90;99.90;;;;;;5048557;28;20045;-77
2021/12/21 02:33:19;;;;;;;23.23;9.37;;;-5.00;99.90;;;;;;5015456;28;20041;-78
2021/12/21 02:35:45;;;;;;;18.23;8.90;;;-5.00;99.90;;;;;;5048569;28;20081;-78
2021/12/21 02:38:11;;;;;;;24.47;11.80;;;-5.00;99.90;;;;;;5031843;28;20463;-77
2021/12/21 02:40:38;;;;;;;22.17;11.77;;;-5.10;99.90;;;;;;5015377;28;20047;-78
2021/12/21 02:43:05;;;;;;;24.50;10.97;;;-5.10;99.90;;;;;;5015517;28;20483;-77
2021/12/21 02:45:30;;;;;;;26.53;13.30;;;-5.10;99.90;;;;;;5048716;28;20373;-78
2021/12/21 02:47:56;;;;;;;36.37;14.90;;;-5.10;99.90;;;;;;4998935;28;20045;-78
2021/12/21 02:50:22;;;;;;;33.93;13.37;;;-5.00;99.90;;;;;;5048488;28;20038;-78
2021/12/21 02:52:48;;;;;;;37.50;16.27;;;-5.00;99.90;;;;;;5048295;28;20041;-76
2021/12/21 02:55:14;;;;;;;37.80;16.80;;;-4.90;99.90;;;;;;5031783;28;20128;-78
2021/12/21 02:57:41;;;;;;;40.00;15.80;;;-4.80;99.90;;;;;;5031597;28;20045;-77
2021/12/21 03:00:08;;;;;;;34.67;16.03;;;-4.80;99.90;;;;;;5031526;28;20136;-77
2021/12/21 03:02:34;;;;;;;35.67;16.60;;;-4.80;99.90;;;;;;5031854;28;20088;-77
2021/12/21 03:05:00;;;;;;;40.07;18.47;;;-4.90;99.90;;;;;;5047976;28;20072;-77
2021/12/21 03:10:13;;;;;;;34.50;14.30;;;-4.90;99.90;;;;;;5033942;28;20056;-77
2021/12/21 03:15:23;;;;;;;45.03;21.97;;;-4.80;99.90;;;;;;5047906;28;20045;-78
2021/12/21 03:17:50;;;;;;;44.27;22.33;;;-4.70;99.90;;;;;;5047858;28;20049;-76
2021/12/21 03:20:16;;;;;;;40.73;20.77;;;-4.60;99.90;;;;;;4998612;28;20037;-78
2021/12/21 03:22:42;;;;;;;44.60;21.80;;;-4.60;99.90;;;;;;5048019;28;20492;-77
2021/12/21 03:25:08;;;;;;;38.47;19.73;;;-4.50;99.90;;;;;;5047882;28;20053;-78
2021/12/21 03:27:34;;;;;;;36.67;17.07;;;-4.50;99.90;;;;;;5031262;28;20230;-77
2021/12/21 03:30:00;;;;;;;28.40;14.60;;;-4.50;99.90;;;;;;5048010;28;20408;-77
2021/12/21 03:32:26;;;;;;;28.43;12.40;;;-4.50;99.90;;;;;;5051228;28;20426;-76
2021/12/21 03:34:52;;;;;;;24.43;11.30;;;-4.50;99.90;;;;;;5035197;28;20045;-78
2021/12/21 03:37:18;;;;;;;24.13;11.77;;;-4.50;99.90;;;;;;5051870;28;20062;-77
2021/12/21 03:39:45;;;;;;;29.10;12.87;;;-4.60;99.90;;;;;;5052263;28;20057;-77
2021/12/21 03:42:14;;;;;;;22.23;11.83;;;-4.50;99.90;;;;;;5051735;28;20091;-77
2021/12/21 03:44:40;;;;;;;24.53;13.33;;;-4.60;99.90;;;;;;5035415;28;20533;-77
2021/12/21 03:47:09;;;;;;;26.60;13.80;;;-4.50;99.90;;;;;;5051690;28;20041;-77
2021/12/21 03:50:00;;;;;;;25.33;14.73;;;-4.50;99.90;;;;;;5051657;28;20111;-77
2021/12/21 03:52:25;;;;;;;24.53;12.83;;;-4.50;99.90;;;;;;5034686;28;20064;-77
2021/12/21 03:54:54;;;;;;;24.93;13.03;;;-4.50;99.90;;;;;;5034986;28;20056;-77
2021/12/21 03:57:20;;;;;;;25.03;14.37;;;-4.50;99.90;;;;;;5051833;28;20492;-77
2021/12/21 03:59:48;;;;;;;19.13;11.53;;;-4.60;99.90;;;;;;5034930;28;20090;-77
2021/12/21 04:02:14;;;;;;;22.97;12.97;;;-4.60;99.90;;;;;;5051716;28;20591;-78
2021/12/21 04:04:41;;;;;;;22.63;11.57;;;-4.70;99.90;;;;;;5051487;28;20133;-77
2021/12/21 04:07:07;;;;;;;22.70;11.67;;;-4.80;99.90;;;;;;5035025;28;20407;-77
2021/12/21 04:09:33;;;;;;;20.87;12.27;;;-4.80;99.90;;;;;;5034686;28;20041;-77
2021/12/21 04:12:00;;;;;;;28.90;14.13;;;-4.90;99.90;;;;;;5051252;28;20045;-77
2021/12/21 04:14:31;;;;;;;30.60;13.77;;;-4.90;99.90;;;;;;5034576;28;20442;-77
2021/12/21 04:16:57;;;;;;;28.90;15.63;;;-4.90;99.90;;;;;;5051200;28;20125;-77
2021/12/21 04:19:23;;;;;;;26.50;13.57;;;-4.90;99.90;;;;;;5018183;28;20081;-77
2021/12/21 04:21:49;;;;;;;33.13;13.87;;;-4.80;99.90;;;;;;5051044;28;20083;-77
2021/12/21 04:24:15;;;;;;;22.77;12.30;;;-4.90;99.90;;;;;;5018132;28;20049;-77
2021/12/21 04:26:41;;;;;;;27.60;13.43;;;-4.90;99.90;;;;;;5034326;28;20068;-77
2021/12/21 04:29:07;;;;;;;31.97;15.83;;;-4.90;99.90;;;;;;5050952;28;20102;-77
2021/12/21 04:31:33;;;;;;;33.43;16.03;;;-4.80;99.90;;;;;;5018059;28;20132;-77
2021/12/21 04:33:59;;;;;;;32.50;16.10;;;-4.80;99.90;;;;;;5033958;28;20116;-77
2021/12/21 04:36:25;;;;;;;30.70;15.93;;;-4.80;99.90;;;;;;5017300;28;20514;-76
2021/12/21 04:38:52;;;;;;;31.57;15.83;;;-4.70;99.90;;;;;;5016542;28;20049;-77
2021/12/21 04:41:24;;;;;;;29.60;16.13;;;-4.80;99.90;;;;;;5049871;28;20408;-77
2021/12/21 04:43:55;;;;;;;33.07;16.47;;;-4.80;99.90;;;;;;5032868;28;20551;-77
2021/12/21 04:46:22;;;;;;;32.73;16.57;;;-4.80;99.90;;;;;;5032828;28;20099;-77
2021/12/21 04:48:48;;;;;;;38.03;18.07;;;-4.90;99.90;;;;;;5049379;28;20049;-77
2021/12/21 04:51:14;;;;;;;45.17;19.10;;;-4.80;99.90;;;;;;5032753;28;20053;-77
2021/12/21 04:53:40;;;;;;;38.33;19.63;;;-4.80;99.90;;;;;;5032617;28;20283;-77
2021/12/21 04:56:06;;;;;;;34.67;18.43;;;-4.80;99.90;;;;;;5032997;28;20419;-77
2021/12/21 04:58:32;;;;;;;39.23;19.53;;;-4.80;99.90;;;;;;4999758;28;20037;-77
2021/12/21 05:00:58;;;;;;;37.83;18.40;;;-4.80;99.90;;;;;;5032816;28;20514;-77
2021/12/21 05:03:24;;;;;;;31.27;17.33;;;-4.80;99.90;;;;;;5032595;28;20129;-77
2021/12/21 05:05:51;;;;;;;41.97;18.57;;;-4.80;99.90;;;;;;5032658;28;20124;-77
2021/12/21 05:08:26;;;;;;;32.13;17.87;;;-4.90;99.90;;;;;;5049045;28;20110;-77
2021/12/21 05:10:56;;;;;;;38.00;18.37;;;-4.90;99.90;;;;;;5049109;28;20046;-76
2021/12/21 05:13:26;;;;;;;35.37;18.83;;;-4.90;99.90;;;;;;5048937;28;20046;-76
2021/12/21 05:15:52;;;;;;;34.53;17.67;;;-4.90;99.90;;;;;;5032378;28;20045;-77
2021/12/21 05:18:19;;;;;;;34.57;17.43;;;-4.90;99.90;;;;;;5048997;28;20099;-76
2021/12/21 05:20:45;;;;;;;32.07;17.67;;;-4.90;99.90;;;;;;5032569;28;20037;-77
2021/12/21 05:23:11;;;;;;;29.67;17.10;;;-4.90;99.90;;;;;;4999493;28;20076;-76
2021/12/21 05:25:38;;;;;;;35.33;20.03;;;-4.60;99.90;;;;;;5032663;28;20084;-77
2021/12/21 05:28:06;;;;;;;34.50;17.80;;;-4.90;99.90;;;;;;5032126;28;20045;-77
2021/12/21 05:30:32;;;;;;;35.07;16.97;;;-4.90;99.90;;;;;;5032572;28;20072;-76
2021/12/21 05:32:57;;;;;;;35.43;18.47;;;-4.90;99.90;;;;;;5048666;28;20042;-76
2021/12/21 05:35:25;;;;;;;32.37;18.23;;;-4.90;99.90;;;;;;4999571;28;20068;-76
2021/12/21 05:37:55;;;;;;;34.40;17.27;;;-4.80;99.90;;;;;;4994695;28;1090187;-77
2021/12/21 05:40:20;;;;;;;32.07;17.73;;;-4.80;99.90;;;;;;5049561;28;20053;-77
2021/12/21 05:42:48;;;;;;;35.20;16.97;;;-4.80;99.90;;;;;;5049720;28;20092;-76
2021/12/21 05:45:17;;;;;;;35.93;16.27;;;-4.80;99.90;;;;;;5049496;28;20291;-76
2021/12/21 05:47:44;;;;;;;36.70;16.80;;;-4.80;99.90;;;;;;5049548;28;20504;-77
2021/12/21 05:50:15;;;;;;;33.87;16.77;;;-4.80;99.90;;;;;;5049347;28;20041;-76
2021/12/21 05:52:41;;;;;;;31.13;16.57;;;-4.80;99.90;;;;;;5049251;28;20115;-77
2021/12/21 05:55:07;;;;;;;32.07;16.87;;;-4.70;99.90;;;;;;4999091;28;20041;-76
2021/12/21 05:57:33;;;;;;;29.47;15.43;;;-4.70;99.90;;;;;;5049219;28;20088;-77
2021/12/21 05:59:59;;;;;;;28.07;15.60;;;-4.70;99.90;;;;;;5032724;28;20052;-76
2021/12/21 06:02:25;;;;;;;29.93;16.20;;;-4.80;99.90;;;;;;5032468;28;20045;-76
2021/12/21 06:04:51;;;;;;;30.20;16.00;;;-4.80;99.90;;;;;;5049195;28;20045;-76
2021/12/21 06:07:16;;;;;;;32.47;16.07;;;-4.90;99.90;;;;;;5033015;28;20068;-76
2021/12/21 06:09:45;;;;;;;28.43;16.23;;;-4.90;99.90;;;;;;5032728;28;20041;-76
2021/12/21 06:12:20;;;;;;;30.10;16.67;;;-4.90;99.90;;;;;;5048916;28;20124;-76
2021/12/21 06:23:31;;;;;;;33.70;17.53;;;-4.50;99.90;;;;;;5048864;28;20060;-76
2021/12/21 06:25:59;;;;;;;31.80;16.53;;;-4.40;99.90;;;;;;5032261;28;20587;-76
2021/12/21 06:28:25;;;;;;;25.42;15.23;;;-4.40;99.90;;;;;;5033290;28;20522;-77
2021/12/21 06:30:51;;;;;;;33.37;16.07;;;-4.40;99.90;;;;;;5031963;28;20090;-76
2021/12/21 06:33:17;;;;;;;32.63;17.23;;;-4.40;99.90;;;;;;5048689;28;20522;-76
2021/12/21 06:35:43;;;;;;;44.33;17.10;;;-4.40;99.90;;;;;;5048767;28;20033;-76
2021/12/21 06:38:10;;;;;;;34.83;16.97;;;-4.30;99.90;;;;;;5048195;28;20046;-76
2021/12/21 06:40:37;;;;;;;26.53;16.03;;;-4.30;99.90;;;;;;5032159;28;20178;-76
2021/12/21 06:43:03;;;;;;;28.67;16.43;;;-4.30;99.90;;;;;;5048274;28;20045;-76
2021/12/21 06:53:38;;;;;;;33.07;16.10;;;-4.50;99.90;;;;;;5034285;28;20168;-76
2021/12/21 06:56:06;;;;;;;26.00;15.97;;;-4.60;99.90;;;;;;5048266;28;20046;-76
2021/12/21 06:58:32;;;;;;;30.33;15.33;;;-4.60;99.90;;;;;;5031741;28;20110;-75
2021/12/21 07:00:59;;;;;;;29.07;15.90;;;-4.70;99.90;;;;;;5015536;28;20523;-76
2021/12/21 07:03:25;;;;;;;26.57;15.17;;;-4.70;99.90;;;;;;5048024;28;20037;-75
2021/12/21 07:05:51;;;;;;;34.17;14.23;;;-4.80;99.90;;;;;;4998792;28;20072;-76
2021/12/21 07:08:23;;;;;;;26.30;15.40;;;-4.80;99.90;;;;;;5048323;28;20475;-76
2021/12/21 07:11:11;;;;;;;31.03;15.93;;;-4.80;99.90;;;;;;5048343;28;20561;-76
2021/12/21 07:19:06;;;;;;;23.97;13.40;;;-4.80;99.90;;;;;;5034077;28;20072;-75
2021/12/21 07:21:32;;;;;;;29.03;14.63;;;-4.90;99.90;;;;;;5031668;28;20037;-76
2021/12/21 07:23:57;;;;;;;32.23;14.93;;;-4.90;99.90;;;;;;5031373;28;20041;-76
2021/12/21 07:26:23;;;;;;;28.33;14.73;;;-4.90;99.90;;;;;;5031333;28;20100;-76
2021/12/21 07:28:49;;;;;;;28.77;14.43;;;-4.90;99.90;;;;;;5014831;28;20063;-75
2021/12/21 07:31:14;;;;;;;30.07;15.60;;;-4.90;99.90;;;;;;5031215;28;20038;-76
2021/12/21 07:33:40;;;;;;;31.13;16.20;;;-4.90;99.90;;;;;;5014701;28;20052;-76
2021/12/21 07:36:06;;;;;;;29.60;16.07;;;-4.90;99.90;;;;;;5047931;28;20467;-75
2021/12/21 07:38:32;;;;;;;27.20;15.40;;;-4.90;99.90;;;;;;5031259;28;20447;-76
2021/12/21 07:41:00;;;;;;;26.77;14.53;;;-4.90;99.90;;;;;;5031728;28;20471;-77
2021/12/21 07:43:26;;;;;;;32.83;16.70;;;-4.90;99.90;;;;;;5031071;28;20077;-76
2021/12/21 07:45:52;;;;;;;27.33;14.73;;;-4.90;99.90;;;;;;5047990;28;20076;-76
2021/12/21 07:48:18;;;;;;;25.73;13.83;;;-4.90;99.90;;;;;;5031389;28;20085;-76
2021/12/21 07:50:46;;;;;;;30.83;15.10;;;-4.90;99.90;;;;;;5047645;28;20046;-76
2021/12/21 07:53:16;;;;;;;35.10;16.73;;;-4.90;99.90;;;;;;5047542;28;20345;-76
2021/12/21 07:55:43;;;;;;;31.37;15.67;;;-4.90;99.90;;;;;;5031489;28;20045;-76
2021/12/21 07:58:09;;;;;;;28.47;14.80;;;-4.90;99.90;;;;;;5047809;28;20145;-76
2021/12/21 08:00:36;;;;;;;28.13;15.00;;;-4.80;99.90;;;;;;5047580;28;20041;-76
2021/12/21 08:03:03;;;;;;;32.63;14.90;;;-4.80;99.90;;;;;;5031360;28;20049;-76
2021/12/21 08:05:32;;;;;;;26.57;15.03;;;-4.70;99.90;;;;;;5046745;28;20044;-76
2021/12/21 08:08:11;;;;;;;30.67;14.90;;;-4.80;99.90;;;;;;5030344;28;20042;-76
2021/12/21 08:10:50;;;;;;;29.97;15.97;;;-4.80;99.90;;;;;;5030711;28;20073;-76
2021/12/21 08:13:17;;;;;;;26.87;15.77;;;-4.70;99.90;;;;;;5047442;28;20052;-76
2021/12/21 08:15:43;;;;;;;31.03;15.93;;;-4.70;99.90;;;;;;5031197;28;20403;-76
2021/12/21 08:18:09;;;;;;;36.23;16.23;;;-4.70;99.90;;;;;;5032442;28;20077;-76
2021/12/21 08:20:35;;;;;;;29.60;16.13;;;-4.60;99.90;;;;;;5033723;28;20479;-77
2021/12/21 08:23:03;;;;;;;43.10;19.10;;;-4.60;99.90;;;;;;5016438;28;20048;-76
2021/12/21 08:25:29;;;;;;;40.83;18.83;;;-4.60;99.90;;;;;;5033637;28;20046;-76
2021/12/21 08:27:59;;;;;;;40.37;20.10;;;-4.50;99.90;;;;;;5032663;28;20124;-76
2021/12/21 08:30:26;;;;;;;43.23;21.33;;;-4.50;99.90;;;;;;5051298;28;20037;-76
2021/12/21 08:32:52;;;;;;;47.70;22.57;;;-4.40;99.90;;;;;;5051140;28;20485;-76
2021/12/21 08:35:19;;;;;;;42.20;22.13;;;-4.30;99.90;;;;;;5034346;28;20050;-76
2021/12/21 08:37:51;;;;;;;39.13;21.27;;;-4.30;99.90;;;;;;5034145;28;20570;-76
2021/12/21 08:40:18;;;;;;;41.23;20.87;;;-4.20;99.90;;;;;;5035078;28;20052;-76
2021/12/21 08:42:47;;;;;;;43.23;22.17;;;-4.20;99.90;;;;;;5050683;28;20045;-76
2021/12/21 08:45:13;;;;;;;38.53;21.90;;;-4.20;99.90;;;;;;5050697;28;20104;-77
2021/12/21 08:47:39;;;;;;;41.33;20.67;;;-4.20;99.90;;;;;;5033413;28;20445;-76
2021/12/21 08:50:07;;;;;;;33.60;19.87;;;-4.20;99.90;;;;;;5039135;28;20053;-76
2021/12/21 08:52:34;;;;;;;34.20;18.27;;;-4.10;99.90;;;;;;5033647;28;20068;-76
2021/12/21 08:55:02;;;;;;;34.40;19.90;;;-4.20;99.90;;;;;;5033756;28;20052;-76
2021/12/21 08:57:28;;;;;;;46.13;21.17;;;-4.20;99.90;;;;;;5017425;28;20046;-76
2021/12/21 08:59:54;;;;;;;40.27;21.80;;;-4.20;99.90;;;;;;5017587;28;20442;-77
2021/12/21 09:02:19;;;;;;;49.10;23.17;;;-4.20;99.90;;;;;;5033685;28;20149;-77
2021/12/21 09:04:45;;;;;;;52.40;23.67;;;-4.20;99.90;;;;;;5017577;28;20049;-76
2021/12/21 09:07:11;;;;;;;52.03;24.90;;;-4.20;99.90;;;;;;5033395;28;20052;-77
2021/12/21 09:09:37;;;;;;;41.50;22.10;;;-4.10;99.90;;;;;;5033875;28;20541;-77
2021/12/21 09:12:03;;;;;;;40.80;20.73;;;-4.00;99.90;;;;;;5050426;28;20128;-77
2021/12/21 09:14:32;;;;;;;51.20;23.20;;;-3.90;99.90;;;;;;5049993;28;20041;-77
2021/12/21 09:16:58;;;;;;;41.33;20.13;;;-3.80;99.90;;;;;;5049822;28;20506;-77
2021/12/21 09:19:24;;;;;;;52.50;22.40;;;-3.80;99.90;;;;;;5049886;28;20053;-76
2021/12/21 09:21:50;;;;;;;46.30;28.73;;;-3.70;99.90;;;;;;5049786;28;20072;-76
2021/12/21 09:24:16;;;;;;;75.43;42.17;;;-3.60;99.90;;;;;;5033379;28;20418;-77
2021/12/21 09:26:42;;;;;;;50.90;28.20;;;-3.50;99.90;;;;;;5033062;28;20037;-77
2021/12/21 09:29:08;;;;;;;64.23;31.43;;;-3.20;99.90;;;;;;5048467;28;20377;-77
2021/12/21 09:31:34;;;;;;;52.30;26.37;;;-3.10;99.90;;;;;;5033141;28;20073;-77
2021/12/21 09:34:00;;;;;;;52.40;26.93;;;-2.90;99.90;;;;;;5049922;28;20492;-77
2021/12/21 09:36:28;;;;;;;65.00;34.50;;;-3.00;99.90;;;;;;5016388;28;20087;-77
2021/12/21 09:38:54;;;;;;;63.17;27.83;;;-3.00;99.90;;;;;;5032532;28;20392;-77
2021/12/21 09:41:20;;;;;;;48.63;25.13;;;-2.90;99.90;;;;;;5016430;28;20045;-77
2021/12/21 09:43:46;;;;;;;46.23;23.33;;;-2.90;99.90;;;;;;4999598;28;20052;-77
2021/12/21 09:46:12;;;;;;;41.97;22.20;;;-2.90;99.90;;;;;;5048960;28;20129;-76
2021/12/21 09:48:38;;;;;;;44.27;22.80;;;-2.80;99.90;;;;;;5032574;28;20049;-76
2021/12/21 09:51:04;;;;;;;42.60;23.00;;;-2.70;99.90;;;;;;5032541;28;20038;-76
2021/12/21 09:53:35;;;;;;;44.60;22.93;;;-2.60;99.90;;;;;;5032411;28;20044;-76
2021/12/21 09:56:05;;;;;;;35.23;21.00;;;-2.60;99.90;;;;;;5032559;28;20094;-76
2021/12/21 09:58:32;;;;;;;50.50;26.60;;;-2.40;99.90;;;;;;5031948;28;20095;-77
2021/12/21 10:00:58;;;;;;;72.77;41.57;;;-2.30;99.90;;;;;;5048875;28;20042;-77
2021/12/21 10:03:23;;;;;;;38.90;25.33;;;-2.10;99.90;;;;;;5031989;28;20045;-77
2021/12/21 10:05:49;;;;;;;41.20;22.23;;;-2.00;99.90;;;;;;5032358;28;20037;-77
2021/12/21 10:08:20;;;;;;;39.07;19.07;;;-1.90;99.90;;;;;;5032573;28;20165;-77
2021/12/21 10:10:51;;;;;;;35.67;19.23;;;-1.80;99.90;;;;;;5032726;28;20528;-76
2021/12/21 10:13:22;;;;;;;36.23;20.80;;;-1.60;99.90;;;;;;5032643;28;20128;-77
2021/12/21 10:16:00;;;;;;;34.33;19.27;;;-1.40;99.90;;;;;;5015888;28;20050;-77
2021/12/21 10:18:35;;;;;;;36.10;21.20;;;-1.50;99.90;;;;;;5015793;28;20045;-77
2021/12/21 10:21:04;;;;;;;38.80;20.23;;;-1.50;99.90;;;;;;5032516;28;20377;-77
2021/12/21 10:23:48;;;;;;;39.73;21.87;;;-1.40;99.90;;;;;;5032122;28;20085;-77
2021/12/21 10:26:22;;;;;;;;;;;-1.40;99.90;;;;;;5032664;28;20041;-77
2021/12/21 10:28:51;;;;;;;39.63;21.30;;;-1.30;99.90;;;;;;5016075;28;20339;-77
2021/12/21 10:31:26;;;;;;;47.17;23.13;;;-1.30;99.90;;;;;;5032164;28;20053;-77
2021/12/21 10:33:53;;;;;;;37.83;20.87;;;-1.20;99.90;;;;;;5032223;28;20498;-77
2021/12/21 10:36:19;;;;;;;39.83;22.97;;;-1.10;99.90;;;;;;5031974;28;20045;-77
2021/12/21 10:38:52;;;;;;;36.93;21.10;;;-1.00;99.90;;;;;;5031881;28;20477;-77
2021/12/21 10:41:20;;;;;;;;;;;-1.00;99.90;;;;;;5032328;28;20448;-77
2021/12/21 10:44:04;;;;;;;60.00;45.87;;;-0.80;99.90;;;;;;5031697;28;19925;-77
2021/12/21 10:46:32;;;;;;;33.13;20.93;;;-0.80;99.90;;;;;;5032201;28;20049;-77
2021/12/21 10:49:18;;;;;;;36.53;21.17;;;-0.70;99.90;;;;;;5015601;28;20049;-78
2021/12/21 10:52:20;;;;;;;27.73;16.30;;;-0.70;99.90;;;;;;5015361;28;20045;-77
2021/12/21 10:54:48;;;;;;;32.27;17.93;;;-0.60;99.90;;;;;;4994950;28;20049;-77
2021/12/21 10:57:23;;;;;;;34.27;17.53;;;-0.50;99.90;;;;;;5026275;28;20081;-78
2021/12/21 10:59:51;;;;;;;34.07;19.13;;;-0.50;99.90;;;;;;5047426;28;20373;-78
2021/12/21 11:02:28;;;;;;;33.43;18.70;;;-0.40;99.90;;;;;;5030066;28;20041;-77
2021/12/21 11:05:12;;;;;;;39.50;18.73;;;-0.40;99.90;;;;;;5006093;28;20041;-77
2021/12/21 11:07:44;;;;;;;;;;;-0.40;99.90;;;;;;5032004;28;20046;-77
2021/12/21 11:10:15;;;;;;;32.23;18.00;;;-0.40;99.90;;;;;;5048165;28;19948;-77
2021/12/21 11:12:52;;;;;;;47.40;22.30;;;-0.30;99.90;;;;;;5048468;28;20392;-77
2021/12/21 11:15:29;;;;;;;48.97;28.73;;;-0.30;99.90;;;;;;5031599;28;20438;-77
2021/12/21 11:18:00;;;;;;;42.30;25.80;;;-0.20;99.90;;;;;;5032048;28;20037;-78
2021/12/21 11:20:27;;;;;;;34.57;20.27;;;-0.20;99.90;;;;;;5031464;28;20049;-77
2021/12/21 11:22:53;;;;;;;43.17;20.20;;;-0.10;99.90;;;;;;4998741;28;20065;-78
2021/12/21 11:25:20;;;;;;;38.00;21.50;;;0.00;99.90;;;;;;5048053;28;20045;-77
2021/12/21 11:27:48;;;;;;;36.93;19.53;;;0.10;99.90;;;;;;5048212;28;20175;-78
2021/12/21 11:30:24;;;;;;;26.73;16.33;;;0.10;99.90;;;;;;5031650;28;20076;-78
2021/12/21 11:32:51;;;;;;;22.97;14.40;;;0.20;99.90;;;;;;5047965;28;20041;-78
2021/12/21 11:37:51;;;;;;;25.60;12.37;;;0.30;99.90;;;;;;5047951;28;20501;-78
2021/12/21 11:40:20;;;;;;;25.53;13.43;;;0.40;99.90;;;;;;5047957;28;20057;-78
2021/12/21 11:42:52;;;;;;;25.93;12.47;;;0.40;99.90;;;;;;5031273;28;20045;-78
2021/12/21 11:45:29;;;;;;;25.87;11.17;;;0.50;99.90;;;;;;5031231;28;20046;-78
2021/12/21 11:48:10;;;;;;;19.93;11.90;;;0.60;99.90;;;;;;5047833;28;20049;-78
2021/12/21 11:50:41;;;;;;;26.60;14.10;;;0.70;99.90;;;;;;5047822;28;20057;-78
2021/12/21 11:53:10;;;;;;;27.60;12.27;;;0.70;99.90;;;;;;5050369;28;20396;-78
2021/12/21 11:55:38;;;;;;;22.40;11.70;;;0.80;99.90;;;;;;5051790;28;20045;-78
2021/12/21 11:58:32;;;;;;;21.23;12.97;;;0.80;99.90;;;;;;5018863;28;20396;-78
2021/12/21 12:01:02;;;;;;;25.70;12.07;;;0.80;99.90;;;;;;5018599;28;20135;-79
2021/12/21 12:03:31;;;;;;;20.77;10.37;;;0.90;99.90;;;;;;5018262;28;20049;-78
2021/12/21 12:06:04;;;;;;;19.00;10.03;;;1.00;99.90;;;;;;5018265;28;20171;-78
2021/12/21 12:08:44;;;;;;;19.13;9.85;;;1.00;99.90;;;;;;5034876;28;20050;-79
2021/12/21 12:11:21;;;;;;;23.90;9.67;;;1.00;99.90;;;;;;5051692;28;20166;-78
2021/12/21 12:13:47;;;;;;;16.20;9.50;;;1.10;99.90;;;;;;5051546;28;20045;-79
2021/12/21 12:16:15;;;;;;;22.07;9.00;;;1.20;99.90;;;;;;5034112;28;20047;-78
2021/12/21 12:18:45;;;;;;;18.77;9.13;;;1.30;99.90;;;;;;5033578;28;20045;-79
2021/12/21 12:21:18;;;;;;;21.17;9.37;;;1.30;99.90;;;;;;5051016;28;20041;-79
2021/12/21 12:23:51;;;;;;;15.32;7.97;;;1.40;99.90;;;;;;5050883;28;20041;-79
2021/12/21 12:26:34;;;;;;;17.35;9.23;;;1.40;99.90;;;;;;5050794;28;20047;-79
2021/12/21 12:29:12;;;;;;;20.88;11.80;;;1.50;99.90;;;;;;5033945;28;20041;-78
2021/12/21 12:31:41;;;;;;;16.93;10.07;;;2.00;99.90;;;;;;5034574;28;20510;-79
2021/12/21 12:34:07;;;;;;;21.20;10.60;;;2.70;99.90;;;;;;5051028;28;20052;-78
2021/12/21 12:36:39;;;;;;;15.27;9.65;;;3.40;99.90;;;;;;5051003;28;20516;-79
2021/12/21 12:39:08;;;;;;;17.63;8.38;;;3.80;99.90;;;;;;5034443;28;20147;-79
2021/12/21 12:41:45;;;;;;;16.67;7.68;;;4.20;99.90;;;;;;5050926;28;20044;-79
2021/12/21 12:44:24;;;;;;;13.25;7.85;;;4.60;99.90;;;;;;5034186;28;20041;-79
2021/12/21 12:47:02;;;;;;;17.30;7.28;;;4.90;99.90;;;;;;5034069;28;20052;-79
2021/12/21 12:49:31;;;;;;;14.35;6.50;;;5.00;89.00;;;;;;5017911;28;20180;-78
2021/12/21 12:52:28;;;;;;;14.98;6.20;;;5.20;99.90;;;;;;5050680;28;20045;-79
2021/12/21 12:55:04;;;;;;;14.93;6.43;;;5.20;1.00;;;;;;5033825;28;20411;-79
2021/12/21 12:57:38;;;;;;;16.35;6.93;;;5.40;91.10;;;;;;5050703;28;20045;-79
2021/12/21 13:00:15;;;;;;;10.75;5.72;;;5.60;1.00;;;;;;5032911;28;20496;-79
2021/12/21 13:03:08;;;;;;;14.95;5.72;;;5.90;67.70;;;;;;5033596;28;20080;-79
2021/12/21 13:05:38;;;;;;;11.98;5.68;;;6.00;1.00;;;;;;5033735;28;20112;-79
2021/12/21 13:08:15;;;;;;;14.00;6.18;;;6.20;1.00;;;;;;5017037;28;20365;-79
2021/12/21 13:10:52;;;;;;;15.15;7.88;;;6.50;1.00;;;;;;5033246;28;20045;-79
2021/12/21 13:13:20;;;;;;;12.32;6.72;;;6.50;1.00;;;;;;5033553;28;20049;-79
2021/12/21 13:15:51;;;;;;;11.50;6.07;;;6.50;1.00;;;;;;5047163;28;20045;-79
2021/12/21 13:18:19;;;;;;;10.27;6.00;;;6.70;1.00;;;;;;5015330;28;20094;-79
2021/12/21 13:20:50;;;;;;;8.65;5.30;;;6.80;1.00;;;;;;5003505;28;20033;-79
2021/12/21 13:23:18;;;;;;;12.48;6.75;;;6.90;1.00;;;;;;5049240;28;20104;-80
2021/12/21 13:26:09;;;;;;;11.43;7.68;;;7.10;1.00;;;;;;5032623;28;20503;-80
2021/12/21 13:28:49;;;;;;;14.25;7.97;;;7.30;1.00;;;;;;5016199;28;20136;-80
2021/12/21 13:31:18;;;;;;;15.15;7.47;;;7.50;1.00;;;;;;5050002;28;20050;-80
2021/12/21 13:33:48;;;;;;;16.10;10.55;;;8.10;1.00;;;;;;5048990;28;20053;-81
2021/12/21 13:36:14;;;;;;;13.02;5.90;;;7.90;1.00;;;;;;5016503;28;20056;-80
2021/12/21 13:38:40;;;;;;;13.10;6.95;;;7.80;1.00;;;;;;5015578;28;20415;-80
2021/12/21 13:41:12;;;;;;;11.55;5.28;;;8.10;1.00;;;;;;5032586;28;20052;-81